Terminal Aerodrome Forecast
Issued by NWS Dodge City, KS

Home | Current Version | Previous Version | Text Only | Print | Product List | Glossary On
Versions: 1 2 3 4 5 6 7 8 9 10 11 12 13 14 15 16 17 18 19 20 21 22 23 24 25 26 27 28 29 30 31 32 33
000
FTUS43 KDDC 280520
TAFDDC
TAF
KDDC 280520Z 2806/2906 12015G25KT P6SM FEW110
     FM280800 17007KT P6SM BKN015
     FM281400 29011KT P6SM SCT150
     FM282300 33008KT P6SM BKN090
     FM290000 02009KT P6SM RA OVC070
     FM290400 01011KT 6SM RA OVC025=

USA.gov is the U.S. government's official web portal to all federal, state and local government web resources and services.